createdAt,value
2019-02-16T00:00:09.728Z,5.70
2019-02-16T00:01:46.542Z,6.20
2019-02-16T00:03:21.699Z,6.00
2019-02-16T00:04:56.918Z,5.70
2019-02-16T00:06:32.419Z,5.47
2019-02-16T00:08:07.967Z,6.30
2019-02-16T00:09:43.472Z,5.72
2019-02-16T00:11:19.033Z,6.15
2019-02-16T00:12:54.275Z,5.70
2019-02-16T00:14:29.487Z,6.00
2019-02-16T00:16:05.789Z,5.97
2019-02-16T00:17:41.012Z,7.03
2019-02-16T00:19:16.231Z,6.03
2019-02-16T00:20:51.451Z,6.30
2019-02-16T00:22:26.671Z,6.67
2019-02-16T00:24:01.889Z,6.87
2019-02-16T00:25:37.111Z,5.60
2019-02-16T00:27:12.592Z,6.20
2019-02-16T00:28:47.816Z,6.10
2019-02-16T00:30:23.270Z,5.43
2019-02-16T00:31:58.434Z,5.23
2019-02-16T00:33:33.654Z,5.80
2019-02-16T00:35:08.873Z,5.70
2019-02-16T00:36:44.056Z,5.57
2019-02-16T00:38:19.247Z,5.77
2019-02-16T00:39:54.442Z,7.13
2019-02-16T00:41:29.657Z,6.10
2019-02-16T00:43:04.889Z,5.67
2019-02-16T00:44:40.129Z,7.03
2019-02-16T00:46:15.377Z,7.20
2019-02-16T00:47:50.537Z,5.95
2019-02-16T00:49:25.757Z,6.37
2019-02-16T00:51:01.266Z,7.03
2019-02-16T00:52:36.469Z,5.97
2019-02-16T00:54:11.685Z,6.07
2019-02-16T00:55:47.078Z,6.50
2019-02-16T00:57:22.265Z,5.53
2019-02-16T00:58:58.420Z,5.97
2019-02-16T01:00:33.895Z,5.70
2019-02-16T01:02:09.059Z,5.57
2019-02-16T01:03:44.262Z,4.90
2019-02-16T01:05:19.478Z,6.07
2019-02-16T01:06:54.699Z,5.73
2019-02-16T01:08:29.916Z,5.90
2019-02-16T01:10:07.930Z,5.67
2019-02-16T01:11:43.153Z,6.00
2019-02-16T01:13:18.367Z,6.47
2019-02-16T01:14:53.588Z,5.43
2019-02-16T01:16:28.784Z,6.03
2019-02-16T01:18:03.996Z,6.07
2019-02-16T01:19:39.243Z,5.77
2019-02-16T01:21:22.530Z,6.27
2019-02-16T01:22:51.304Z,6.23
2019-02-16T01:24:26.549Z,6.30
2019-02-16T01:26:01.735Z,6.30
2019-02-16T01:27:37.245Z,6.20
2019-02-16T01:29:12.691Z,6.33
2019-02-16T01:30:48.133Z,6.15
2019-02-16T01:32:23.610Z,6.12
2019-02-16T01:33:58.819Z,6.30
2019-02-16T01:35:34.045Z,5.80
2019-02-16T01:37:09.273Z,5.67
2019-02-16T01:38:44.482Z,6.37
2019-02-16T01:40:19.779Z,6.43
2019-02-16T01:41:55.011Z,6.67
2019-02-16T01:43:30.590Z,6.53
2019-02-16T01:45:07.985Z,6.10
2019-02-16T01:46:44.430Z,5.92
2019-02-16T01:48:19.648Z,6.20
2019-02-16T01:49:55.812Z,5.95
2019-02-16T01:51:32.173Z,6.07
2019-02-16T01:53:07.577Z,6.17
2019-02-16T01:54:42.794Z,5.70
2019-02-16T01:56:18.012Z,5.62
2019-02-16T01:57:53.238Z,6.33
2019-02-16T01:59:28.452Z,5.50
2019-02-16T02:01:03.676Z,6.10
2019-02-16T02:02:39.342Z,5.78
2019-02-16T02:04:14.885Z,6.17
2019-02-16T02:05:50.101Z,6.03
2019-02-16T02:07:25.293Z,5.63
2019-02-16T02:09:01.504Z,5.20
2019-02-16T02:10:39.477Z,6.08
2019-02-16T02:12:14.830Z,5.70
2019-02-16T02:13:50.045Z,5.80
2019-02-16T02:15:25.550Z,5.70
2019-02-16T02:17:00.748Z,6.07
2019-02-16T02:18:35.967Z,5.73
2019-02-16T02:20:11.171Z,6.30
2019-02-16T02:21:46.374Z,5.87
2019-02-16T02:23:21.537Z,6.10
2019-02-16T02:24:56.756Z,5.83
2019-02-16T02:26:31.946Z,5.70
2019-02-16T02:28:07.118Z,5.63
2019-02-16T02:29:42.333Z,6.20
2019-02-16T02:31:17.547Z,6.93
2019-02-16T02:32:53.039Z,5.97
2019-02-16T02:34:28.257Z,6.50
2019-02-16T02:36:03.476Z,5.33
2019-02-16T02:37:39.594Z,5.95
2019-02-16T02:39:15.803Z,7.03
2019-02-16T02:40:50.995Z,6.27
2019-02-16T02:42:26.162Z,5.77
2019-02-16T02:44:01.373Z,5.73
2019-02-16T02:45:41.720Z,6.37
2019-02-16T02:47:16.945Z,6.20
2019-02-16T02:48:52.161Z,6.17
2019-02-16T02:50:27.384Z,5.65
2019-02-16T02:52:02.601Z,5.87
2019-02-16T02:53:37.831Z,6.33
2019-02-16T02:55:13.046Z,6.43
2019-02-16T02:56:48.260Z,5.23
2019-02-16T02:58:23.805Z,5.87
2019-02-16T02:59:58.984Z,5.90
2019-02-16T03:01:34.558Z,5.53
2019-02-16T03:03:09.944Z,6.40
2019-02-16T03:04:45.167Z,6.10
2019-02-16T03:06:20.395Z,6.10
2019-02-16T03:07:55.600Z,6.35
2019-02-16T03:09:30.823Z,6.23
2019-02-16T03:11:06.043Z,6.87
2019-02-16T03:12:41.240Z,6.43
2019-02-16T03:14:16.458Z,5.77
2019-02-16T03:15:51.680Z,6.67
2019-02-16T03:17:26.923Z,7.00
2019-02-16T03:19:02.385Z,6.33
2019-02-16T03:20:37.631Z,7.07
2019-02-16T03:22:12.849Z,7.43
2019-02-16T03:23:48.067Z,7.47
2019-02-16T03:25:23.300Z,7.30
2019-02-16T03:27:06.061Z,7.10
2019-02-16T03:28:51.455Z,6.73
2019-02-16T03:30:45.844Z,7.73
2019-02-16T03:32:47.240Z,8.40
2019-02-16T03:34:47.669Z,6.97
2019-02-16T03:36:49.623Z,7.57
2019-02-16T03:38:42.098Z,7.60
2019-02-16T03:40:17.622Z,7.47
2019-02-16T03:41:52.829Z,7.77
2019-02-16T03:43:28.048Z,8.47
2019-02-16T03:45:03.535Z,7.90
2019-02-16T03:46:38.758Z,8.50
2019-02-16T03:48:13.936Z,7.83
2019-02-16T03:49:49.464Z,8.10
2019-02-16T03:51:24.963Z,7.77
2019-02-16T03:53:00.182Z,7.87
2019-02-16T03:54:35.391Z,7.50
2019-02-16T03:56:10.613Z,8.53
2019-02-16T03:57:45.828Z,8.30
2019-02-16T03:59:21.033Z,7.47
2019-02-16T04:00:56.267Z,9.60
2019-02-16T04:02:31.740Z,9.17
2019-02-16T04:04:06.988Z,9.20
2019-02-16T04:05:42.210Z,9.73
2019-02-16T04:07:17.685Z,8.70
2019-02-16T04:08:52.912Z,9.00
2019-02-16T04:10:28.116Z,9.80
2019-02-16T04:12:03.617Z,10.83
2019-02-16T04:13:38.794Z,9.63
2019-02-16T04:15:14.285Z,9.13
2019-02-16T04:16:49.468Z,8.33
2019-02-16T04:18:24.669Z,7.70
2019-02-16T04:19:59.891Z,7.80
2019-02-16T04:21:35.080Z,7.67
2019-02-16T04:23:10.620Z,7.45
2019-02-16T04:24:45.814Z,7.93
2019-02-16T04:26:21.034Z,7.67
2019-02-16T04:27:56.256Z,10.53
2019-02-16T04:29:31.480Z,8.27
2019-02-16T04:31:06.701Z,8.57
2019-02-16T04:32:41.914Z,8.40
2019-02-16T04:34:17.113Z,7.63
2019-02-16T04:35:52.331Z,8.27
2019-02-16T04:37:27.550Z,8.98
2019-02-16T04:39:04.613Z,9.30
2019-02-16T04:40:40.982Z,8.65
2019-02-16T04:42:16.469Z,8.17
2019-02-16T04:43:51.689Z,8.50
2019-02-16T04:45:27.168Z,9.10
2019-02-16T04:47:02.400Z,8.20
2019-02-16T04:48:37.618Z,8.17
2019-02-16T04:50:12.837Z,9.07
2019-02-16T04:51:48.285Z,8.93
2019-02-16T04:53:23.555Z,8.70
2019-02-16T04:54:58.766Z,8.40
2019-02-16T04:56:34.413Z,10.30
2019-02-16T04:58:09.654Z,9.47
2019-02-16T04:59:44.874Z,8.70
2019-02-16T05:01:20.089Z,10.18
2019-02-16T05:02:56.680Z,10.05
2019-02-16T05:04:32.219Z,10.30
2019-02-16T05:06:07.749Z,9.30
2019-02-16T05:07:42.949Z,8.07
2019-02-16T05:09:18.176Z,9.78
2019-02-16T05:10:53.391Z,9.90
2019-02-16T05:12:28.614Z,10.27
2019-02-16T05:14:04.122Z,10.07
2019-02-16T05:15:39.319Z,9.90
2019-02-16T05:17:14.533Z,9.23
2019-02-16T05:18:49.755Z,10.03
2019-02-16T05:20:24.976Z,10.20
2019-02-16T05:22:00.181Z,9.90
2019-02-16T05:23:35.412Z,9.70
2019-02-16T05:25:11.366Z,9.83
2019-02-16T05:26:46.570Z,10.18
2019-02-16T05:28:21.771Z,10.07
2019-02-16T05:29:57.367Z,9.50
2019-02-16T05:31:32.588Z,9.40
2019-02-16T05:33:07.807Z,9.10
2019-02-16T05:34:43.030Z,8.83
2019-02-16T05:36:18.243Z,8.95
2019-02-16T05:37:53.467Z,8.88
2019-02-16T05:39:28.688Z,9.47
2019-02-16T05:41:03.909Z,9.57
2019-02-16T05:42:39.416Z,9.40
2019-02-16T05:44:14.701Z,9.30
2019-02-16T05:45:49.991Z,9.57
2019-02-16T05:47:25.250Z,9.47
2019-02-16T05:49:00.453Z,9.40
2019-02-16T05:50:35.670Z,10.13
2019-02-16T05:52:11.705Z,9.08
2019-02-16T05:53:46.920Z,9.70
2019-02-16T05:55:22.140Z,10.57
2019-02-16T05:56:57.359Z,10.27
2019-02-16T05:58:32.589Z,9.77
2019-02-16T06:00:11.894Z,9.87
2019-02-16T06:01:53.599Z,9.97
2019-02-16T06:03:24.211Z,9.57
2019-02-16T06:05:00.411Z,9.77
2019-02-16T06:06:35.615Z,9.10
2019-02-16T06:08:11.735Z,10.43
2019-02-16T06:09:46.952Z,9.95
2019-02-16T06:11:22.172Z,9.67
2019-02-16T06:12:57.389Z,10.25
2019-02-16T06:14:32.612Z,9.93
2019-02-16T06:16:07.826Z,12.07
2019-02-16T06:17:43.041Z,12.70
2019-02-16T06:19:18.266Z,10.82
2019-02-16T06:20:53.489Z,10.53
2019-02-16T06:22:28.757Z,9.83
2019-02-16T06:24:03.930Z,10.70
2019-02-16T06:25:39.145Z,10.97
2019-02-16T06:27:14.365Z,11.47
2019-02-16T06:28:49.581Z,10.30
2019-02-16T06:30:24.824Z,11.80
2019-02-16T06:32:00.027Z,12.80
2019-02-16T06:33:35.249Z,11.30
2019-02-16T06:35:12.081Z,12.70
2019-02-16T06:36:47.262Z,11.67
2019-02-16T06:38:22.450Z,11.83
2019-02-16T06:39:57.644Z,11.03
2019-02-16T06:41:33.154Z,11.60
2019-02-16T06:43:08.687Z,12.20
2019-02-16T06:44:45.196Z,13.70
2019-02-16T06:46:20.414Z,11.03
2019-02-16T06:47:55.598Z,10.67
2019-02-16T06:49:30.786Z,10.87
2019-02-16T06:51:05.984Z,11.23
2019-02-16T06:52:42.300Z,11.70
2019-02-16T06:54:17.502Z,12.00
2019-02-16T06:55:54.342Z,12.55
2019-02-16T06:57:30.463Z,12.53
2019-02-16T06:59:05.730Z,13.33
2019-02-16T07:00:40.953Z,13.97
2019-02-16T07:02:16.121Z,12.40
2019-02-16T07:03:51.623Z,12.47
2019-02-16T07:05:26.832Z,12.87
2019-02-16T07:07:02.043Z,16.60
2019-02-16T07:08:37.262Z,14.83
2019-02-16T07:10:12.495Z,15.23
2019-02-16T07:11:47.684Z,14.97
2019-02-16T07:13:22.857Z,13.77
2019-02-16T07:14:58.052Z,14.90
2019-02-16T07:16:34.890Z,13.50
2019-02-16T07:18:14.709Z,14.87
2019-02-16T07:19:51.279Z,15.73
2019-02-16T07:21:26.763Z,15.20
2019-02-16T07:23:01.982Z,12.97
2019-02-16T07:24:37.209Z,13.83
2019-02-16T07:26:12.467Z,13.87
2019-02-16T07:27:47.671Z,14.13
2019-02-16T07:29:22.891Z,13.98
2019-02-16T07:30:58.105Z,15.43
2019-02-16T07:32:33.269Z,16.83
2019-02-16T07:34:08.452Z,14.50
2019-02-16T07:35:43.636Z,16.50
2019-02-16T07:37:18.812Z,16.13
2019-02-16T07:38:54.002Z,14.80
2019-02-16T07:40:29.244Z,14.53
2019-02-16T07:42:04.447Z,16.43
2019-02-16T07:43:50.036Z,17.12
2019-02-16T07:45:40.996Z,14.85
2019-02-16T07:47:20.502Z,16.63
2019-02-16T07:48:57.573Z,16.80
2019-02-16T07:50:34.398Z,16.70
2019-02-16T07:52:17.118Z,17.57
2019-02-16T07:53:59.629Z,17.17
2019-02-16T07:55:39.539Z,16.10
2019-02-16T07:57:23.404Z,17.03
2019-02-16T07:59:00.277Z,15.97
2019-02-16T08:00:43.062Z,16.93
2019-02-16T08:02:22.744Z,16.43
2019-02-16T08:03:59.635Z,18.23
2019-02-16T08:05:36.468Z,17.07
2019-02-16T08:07:20.085Z,18.17
2019-02-16T08:09:13.455Z,19.53
2019-02-16T08:10:52.975Z,18.77
2019-02-16T08:12:46.481Z,18.20
2019-02-16T08:14:26.393Z,18.67
2019-02-16T08:16:08.978Z,17.63
2019-02-16T08:17:54.869Z,19.90
2019-02-16T08:19:31.876Z,19.13
2019-02-16T08:21:14.721Z,20.05
2019-02-16T08:22:51.562Z,18.45
2019-02-16T08:24:44.702Z,18.50
2019-02-16T08:26:21.606Z,19.47
2019-02-16T08:27:58.461Z,18.23
2019-02-16T08:29:37.926Z,18.70
2019-02-16T08:31:17.976Z,20.50
2019-02-16T08:32:54.824Z,17.83
2019-02-16T08:34:49.734Z,18.13
2019-02-16T08:36:41.963Z,17.80
2019-02-16T08:38:19.182Z,19.27
2019-02-16T08:39:58.715Z,18.73
2019-02-16T08:41:44.730Z,18.60
2019-02-16T08:43:30.582Z,18.15
2019-02-16T08:45:14.990Z,18.83
2019-02-16T08:47:08.461Z,18.52
2019-02-16T08:48:48.086Z,18.67
2019-02-16T08:50:24.916Z,17.90
2019-02-16T08:52:04.664Z,18.23
2019-02-16T08:53:49.820Z,19.60
2019-02-16T08:55:23.299Z,18.73
2019-02-16T08:57:16.623Z,19.23
2019-02-16T08:59:02.535Z,19.77
2019-02-16T09:00:39.374Z,19.57
2019-02-16T09:02:16.262Z,19.13
2019-02-16T09:03:53.099Z,20.10
2019-02-16T09:05:46.336Z,20.62
2019-02-16T09:07:32.190Z,19.80
2019-02-16T09:09:12.095Z,18.73
2019-02-16T09:10:48.974Z,19.97
2019-02-16T09:12:28.820Z,19.23
2019-02-16T09:14:14.479Z,18.77
2019-02-16T09:15:54.020Z,19.62
2019-02-16T09:17:30.926Z,21.77
2019-02-16T09:19:08.007Z,21.10
2019-02-16T09:20:45.347Z,20.30
2019-02-16T09:22:22.548Z,20.03
2019-02-16T09:24:03.073Z,20.70
2019-02-16T09:25:56.659Z,19.93
2019-02-16T09:27:42.540Z,19.20
2019-02-16T09:29:25.596Z,20.77
2019-02-16T09:31:02.401Z,19.17
2019-02-16T09:32:39.401Z,19.73
2019-02-16T09:34:19.388Z,20.83
2019-02-16T09:36:02.540Z,21.57
2019-02-16T09:37:42.339Z,20.50
2019-02-16T09:39:21.999Z,20.63
2019-02-16T09:40:58.818Z,19.73
2019-02-16T09:42:38.707Z,20.07
2019-02-16T09:44:18.243Z,19.00
2019-02-16T09:45:58.071Z,20.50
2019-02-16T09:47:34.944Z,20.13
2019-02-16T09:49:11.824Z,20.57
2019-02-16T09:50:48.670Z,20.97
2019-02-16T09:52:25.520Z,19.20
2019-02-16T09:54:14.404Z,18.37
2019-02-16T09:55:51.255Z,19.02
2019-02-16T09:57:34.001Z,19.50
2019-02-16T09:59:10.864Z,18.77
2019-02-16T10:00:56.802Z,18.70
2019-02-16T10:02:39.678Z,20.12
2019-02-16T10:04:16.555Z,20.37
2019-02-16T10:05:53.714Z,19.87
2019-02-16T10:07:30.686Z,19.00
2019-02-16T10:09:10.673Z,19.33
2019-02-16T10:10:50.145Z,18.87
2019-02-16T10:12:29.933Z,18.00
2019-02-16T10:14:06.767Z,19.40
2019-02-16T10:15:43.654Z,19.17
2019-02-16T10:17:20.568Z,18.87
2019-02-16T10:19:03.092Z,18.95
2019-02-16T10:20:48.942Z,17.60
2019-02-16T10:22:31.797Z,20.77
2019-02-16T10:24:17.376Z,19.47
2019-02-16T10:25:47.144Z,18.37
2019-02-16T10:27:27.174Z,18.63
2019-02-16T10:29:20.146Z,18.53
2019-02-16T10:31:02.910Z,19.77
2019-02-16T10:32:56.125Z,17.10
2019-02-16T10:34:41.784Z,17.73
2019-02-16T10:36:18.624Z,18.37
2019-02-16T10:38:10.561Z,17.50
2019-02-16T10:40:05.503Z,18.87
2019-02-16T10:41:51.623Z,18.70
2019-02-16T10:43:40.804Z,17.60
2019-02-16T10:45:33.759Z,21.27
2019-02-16T10:47:13.724Z,19.47
2019-02-16T10:48:50.658Z,18.80
2019-02-16T10:50:27.543Z,19.30
2019-02-16T10:52:04.696Z,18.37
2019-02-16T10:53:56.614Z,17.00
2019-02-16T10:55:42.578Z,17.98
2019-02-16T10:57:36.074Z,18.50
2019-02-16T10:59:31.269Z,17.53
2019-02-16T11:01:08.161Z,17.77
2019-02-16T11:02:49.540Z,17.73
2019-02-16T11:04:38.111Z,17.13
2019-02-16T11:06:13.547Z,17.20
2019-02-16T11:07:50.663Z,16.32
2019-02-16T11:09:27.516Z,17.20
2019-02-16T11:11:06.964Z,17.80
2019-02-16T11:12:55.866Z,19.23
2019-02-16T11:14:41.526Z,17.27
2019-02-16T11:16:25.669Z,16.90
2019-02-16T11:18:20.669Z,16.82
2019-02-16T11:20:09.642Z,16.77
2019-02-16T11:21:49.362Z,17.47
2019-02-16T11:23:29.150Z,17.60
2019-02-16T11:25:13.157Z,15.87
2019-02-16T11:26:50.075Z,16.23
2019-02-16T11:28:43.111Z,17.60
2019-02-16T11:30:20.935Z,17.60
2019-02-16T11:31:57.791Z,16.53
2019-02-16T11:33:34.633Z,17.23
2019-02-16T11:35:15.508Z,16.60
2019-02-16T11:36:52.359Z,16.97
2019-02-16T11:38:47.506Z,15.63
2019-02-16T11:40:32.954Z,16.57
2019-02-16T11:42:21.926Z,15.47
2019-02-16T11:44:10.261Z,15.80
2019-02-16T11:45:47.337Z,15.43
2019-02-16T11:47:33.356Z,16.50
2019-02-16T11:49:10.496Z,15.70
2019-02-16T11:50:47.362Z,16.33
2019-02-16T11:52:24.244Z,15.80
2019-02-16T11:54:16.208Z,15.75
2019-02-16T11:56:09.116Z,15.80
2019-02-16T11:57:47.140Z,15.30
2019-02-16T11:59:24.278Z,15.80
2019-02-16T12:01:01.183Z,16.17
2019-02-16T12:02:40.566Z,16.40
2019-02-16T12:04:20.337Z,15.67
2019-02-16T12:05:57.301Z,15.68
2019-02-16T12:07:36.899Z,14.78
2019-02-16T12:09:13.803Z,14.80
2019-02-16T12:11:07.180Z,15.53
2019-02-16T12:12:46.658Z,14.53
2019-02-16T12:14:41.611Z,13.80
2019-02-16T12:16:18.476Z,14.63
2019-02-16T12:17:58.036Z,14.78
2019-02-16T12:19:43.947Z,16.05
2019-02-16T12:21:20.832Z,14.50
2019-02-16T12:23:09.504Z,15.87
2019-02-16T12:25:05.427Z,15.03
2019-02-16T12:26:43.089Z,15.58
2019-02-16T12:28:22.548Z,14.40
2019-02-16T12:29:59.649Z,14.58
2019-02-16T12:31:54.455Z,14.37
2019-02-16T12:33:31.271Z,14.25
2019-02-16T12:35:24.713Z,14.07
2019-02-16T12:37:07.398Z,14.63
2019-02-16T12:38:47.207Z,13.03
2019-02-16T12:40:24.076Z,14.38
2019-02-16T12:42:00.950Z,13.88
2019-02-16T12:43:40.440Z,14.10
2019-02-16T12:45:26.113Z,13.20
2019-02-16T12:47:02.953Z,13.05
2019-02-16T12:48:39.777Z,13.17
2019-02-16T12:50:20.084Z,13.50
2019-02-16T12:51:59.680Z,12.83
2019-02-16T12:53:48.231Z,12.50
2019-02-16T12:55:31.235Z,13.85
2019-02-16T12:57:08.053Z,13.43
2019-02-16T12:58:44.944Z,12.93
2019-02-16T13:00:22.109Z,13.78
2019-02-16T13:02:11.739Z,12.85
2019-02-16T13:04:00.380Z,11.80
2019-02-16T13:05:53.116Z,13.90
2019-02-16T13:07:29.985Z,12.95
2019-02-16T13:09:10.643Z,13.23
2019-02-16T13:10:50.515Z,12.60
2019-02-16T13:12:43.589Z,13.50
2019-02-16T13:14:22.850Z,12.53
2019-02-16T13:15:59.743Z,12.07
2019-02-16T13:17:39.486Z,11.57
2019-02-16T13:19:16.347Z,11.93
2019-02-16T13:20:58.901Z,13.78
2019-02-16T13:22:35.754Z,12.23
2019-02-16T13:24:12.576Z,12.07
2019-02-16T13:26:05.338Z,10.57
2019-02-16T13:27:59.093Z,11.40
2019-02-16T13:29:35.933Z,12.23
2019-02-16T13:31:24.812Z,13.07
2019-02-16T13:33:08.333Z,11.35
2019-02-16T13:34:54.912Z,11.97
2019-02-16T13:36:31.751Z,11.55
2019-02-16T13:42:50.211Z,11.15
2019-02-16T13:44:29.492Z,11.10
2019-02-16T13:46:24.747Z,10.40
2019-02-16T13:48:07.221Z,10.83
2019-02-16T13:49:43.904Z,10.30
2019-02-16T13:51:32.966Z,10.85
2019-02-16T13:53:09.799Z,10.47
2019-02-16T13:54:46.645Z,10.17
2019-02-16T13:56:39.488Z,9.55
2019-02-16T13:58:16.325Z,9.27
2019-02-16T13:59:56.362Z,9.60
2019-02-16T14:01:49.969Z,9.13
2019-02-16T14:03:43.192Z,8.35
2019-02-16T14:05:36.795Z,8.48
2019-02-16T14:07:29.616Z,8.53
2019-02-16T14:09:09.498Z,8.37
2019-02-16T14:10:48.771Z,8.30
2019-02-16T14:12:26.010Z,8.97
2019-02-16T14:14:08.572Z,9.10
2019-02-16T14:15:47.901Z,9.30
2019-02-16T14:17:33.721Z,7.90
2019-02-16T14:19:08.924Z,8.50
2019-02-16T14:20:44.385Z,8.57
2019-02-16T14:22:19.587Z,8.70
2019-02-16T14:23:54.860Z,9.28
2019-02-16T14:25:31.695Z,9.05
2019-02-16T14:27:06.881Z,8.87
2019-02-16T14:28:42.198Z,9.23
2019-02-16T14:30:17.422Z,7.83
2019-02-16T14:31:52.892Z,8.15
2019-02-16T14:33:28.370Z,7.50
2019-02-16T14:35:03.955Z,8.17
2019-02-16T14:36:39.148Z,8.00
2019-02-16T14:40:55.950Z,8.77
2019-02-16T14:42:35.185Z,8.23
2019-02-16T14:44:10.491Z,8.47
2019-02-16T14:45:46.171Z,8.60
2019-02-16T14:47:21.586Z,8.60
2019-02-16T14:48:56.851Z,8.80
2019-02-16T14:50:32.119Z,8.33
2019-02-16T14:52:07.616Z,8.17
2019-02-16T14:53:42.779Z,8.67
2019-02-16T14:55:19.293Z,7.87
2019-02-16T14:56:54.656Z,7.75
2019-02-16T14:58:31.628Z,7.40
2019-02-16T15:00:10.810Z,7.73
2019-02-16T15:01:46.375Z,7.90
2019-02-16T15:03:21.601Z,6.78
2019-02-16T15:04:58.590Z,7.83
2019-02-16T15:06:33.823Z,8.13
2019-02-16T15:08:09.030Z,7.90
2019-02-16T15:09:44.198Z,8.23
2019-02-16T15:11:19.726Z,8.47
2019-02-16T15:12:54.797Z,7.05
2019-02-16T15:14:29.918Z,9.30
2019-02-16T15:16:05.342Z,7.97
2019-02-16T15:17:40.640Z,8.00
2019-02-16T15:19:16.006Z,6.87
2019-02-16T15:20:51.221Z,6.15
2019-02-16T15:22:28.094Z,6.30
2019-02-16T15:24:03.651Z,6.23
2019-02-16T15:25:38.881Z,6.13
2019-02-16T15:27:16.134Z,6.40
2019-02-16T15:28:52.990Z,6.00
2019-02-16T15:30:28.225Z,6.10
2019-02-16T15:32:03.472Z,6.97
2019-02-16T15:33:38.903Z,6.20
2019-02-16T15:35:14.519Z,6.87
2019-02-16T15:36:49.742Z,6.65
2019-02-16T15:38:29.282Z,6.67
2019-02-16T15:40:05.765Z,6.67
2019-02-16T15:41:41.042Z,6.53
2019-02-16T15:43:16.338Z,6.80
2019-02-16T15:44:51.596Z,6.30
2019-02-16T15:46:29.596Z,6.00
2019-02-16T15:48:04.739Z,6.47
2019-02-16T15:49:41.159Z,6.60
2019-02-16T15:51:18.571Z,6.97
2019-02-16T15:52:53.800Z,6.97
2019-02-16T15:54:31.026Z,6.58
2019-02-16T15:56:10.547Z,7.50
2019-02-16T15:57:43.289Z,8.23
2019-02-16T15:59:18.552Z,7.80
2019-02-16T16:00:53.817Z,7.90
2019-02-16T16:02:30.784Z,7.35
2019-02-16T16:04:06.084Z,8.07
2019-02-16T16:05:41.404Z,7.80
2019-02-16T16:07:16.653Z,7.93
2019-02-16T16:08:56.292Z,7.72
2019-02-16T16:10:34.267Z,7.73
2019-02-16T16:12:13.918Z,8.20
2019-02-16T16:14:09.043Z,7.60
2019-02-16T16:16:02.934Z,6.80
2019-02-16T16:17:54.854Z,7.60
2019-02-16T16:19:33.391Z,8.18
2019-02-16T16:21:10.341Z,8.00
2019-02-16T16:22:49.507Z,8.60
2019-02-16T16:24:42.808Z,8.37
2019-02-16T16:26:19.838Z,8.67
2019-02-16T16:28:05.285Z,9.10
2019-02-16T16:29:44.784Z,9.53
2019-02-16T16:31:24.614Z,10.53
2019-02-16T16:33:17.960Z,10.53
2019-02-16T16:34:54.840Z,10.08
2019-02-16T16:36:37.728Z,12.75
2019-02-16T16:38:17.469Z,11.57
2019-02-16T16:39:54.315Z,11.22
2019-02-16T16:41:32.277Z,10.38
2019-02-16T16:43:12.077Z,10.00
2019-02-16T16:44:54.589Z,10.03
2019-02-16T16:46:34.252Z,10.70
2019-02-16T16:48:11.153Z,11.07
2019-02-16T16:49:48.036Z,10.80
2019-02-16T16:51:30.964Z,11.38
2019-02-16T16:53:07.847Z,12.43
2019-02-16T16:55:00.799Z,10.83
2019-02-16T16:56:37.848Z,12.43
2019-02-16T16:58:17.813Z,10.67
2019-02-16T17:00:03.733Z,11.88
2019-02-16T17:01:41.671Z,11.83
2019-02-16T17:03:35.501Z,13.57
2019-02-16T17:05:12.475Z,12.40
2019-02-16T17:07:05.500Z,11.90
2019-02-16T17:08:42.497Z,11.37
2019-02-16T17:10:34.652Z,11.10
2019-02-16T17:12:34.866Z,11.00
2019-02-16T17:14:31.713Z,9.83
2019-02-16T17:16:17.252Z,9.37
2019-02-16T17:18:13.715Z,10.10
2019-02-16T17:19:47.395Z,10.50
2019-02-16T17:21:43.571Z,10.20
2019-02-16T17:23:22.198Z,10.00
2019-02-16T17:25:04.911Z,12.23
2019-02-16T17:26:50.473Z,11.87
2019-02-16T17:28:34.969Z,12.23
2019-02-16T17:30:18.428Z,13.47
2019-02-16T17:33:59.086Z,13.30
2019-02-16T17:35:44.677Z,12.40
2019-02-16T17:37:24.348Z,12.53
2019-02-16T17:39:03.800Z,10.25
2019-02-16T17:40:40.643Z,12.53
2019-02-16T17:42:33.771Z,10.37
2019-02-16T17:44:10.690Z,12.17
2019-02-16T17:45:47.634Z,11.73
2019-02-16T17:47:24.538Z,11.90
2019-02-16T17:49:10.490Z,11.70
2019-02-16T17:50:50.605Z,11.28
2019-02-16T17:52:30.316Z,13.10
2019-02-16T17:54:10.172Z,12.10
2019-02-16T17:55:51.929Z,12.13
2019-02-16T17:57:44.950Z,12.03
2019-02-16T17:59:36.804Z,13.27
2019-02-16T18:01:32.107Z,11.57
2019-02-16T18:03:21.042Z,13.10
2019-02-16T18:05:10.054Z,14.03
2019-02-16T18:06:51.079Z,12.50
2019-02-16T18:08:34.860Z,13.53
2019-02-16T18:10:11.764Z,12.20
2019-02-16T18:11:48.662Z,12.20
2019-02-16T18:13:41.912Z,12.70
2019-02-16T18:15:21.731Z,13.23
2019-02-16T18:17:18.194Z,12.98
2019-02-16T18:19:10.688Z,11.45
2019-02-16T18:20:51.106Z,12.25
2019-02-16T18:22:30.849Z,13.77
2019-02-16T18:24:16.671Z,12.47
2019-02-16T18:25:57.221Z,11.97
2019-02-16T18:27:37.269Z,11.70
2019-02-16T18:29:14.600Z,12.60
2019-02-16T18:31:06.584Z,12.50
2019-02-16T18:32:46.410Z,12.93
2019-02-16T18:34:26.069Z,12.88
2019-02-16T18:36:03.457Z,14.07
2019-02-16T18:37:43.210Z,12.03
2019-02-16T18:39:20.265Z,12.17
2019-02-16T18:41:04.824Z,13.10
2019-02-16T18:42:44.616Z,12.47
2019-02-16T18:44:39.516Z,12.10
2019-02-16T18:46:22.072Z,12.37
2019-02-16T18:48:04.702Z,12.10
2019-02-16T18:49:59.688Z,12.20
2019-02-16T18:51:45.240Z,12.70
2019-02-16T18:53:25.313Z,11.80
2019-02-16T18:55:19.872Z,12.20
2019-02-16T18:57:07.202Z,10.90
2019-02-16T18:58:44.088Z,12.47
2019-02-16T19:00:21.000Z,12.60
2019-02-16T19:01:57.921Z,11.95
2019-02-16T19:03:40.594Z,12.65
2019-02-16T19:05:21.481Z,13.40
2019-02-16T19:06:58.451Z,13.40
2019-02-16T19:08:35.409Z,13.87
2019-02-16T19:10:12.301Z,14.53
2019-02-16T19:11:57.265Z,13.70
2019-02-16T19:13:39.865Z,15.72
2019-02-16T19:15:32.697Z,14.40
2019-02-16T19:17:12.262Z,14.17
2019-02-16T19:18:52.588Z,14.95
2019-02-16T19:20:32.289Z,14.10
2019-02-16T19:22:18.100Z,13.37
2019-02-16T19:23:57.267Z,16.17
2019-02-16T19:25:34.201Z,13.75
2019-02-16T19:27:16.680Z,13.67
2019-02-16T19:28:56.272Z,14.33
2019-02-16T19:30:49.462Z,14.55
2019-02-16T19:32:35.519Z,16.30
2019-02-16T19:34:21.987Z,14.23
2019-02-16T19:36:01.345Z,13.60
2019-02-16T19:37:41.072Z,13.70
2019-02-16T19:39:17.977Z,15.20
2019-02-16T19:40:54.846Z,14.23
2019-02-16T19:42:40.891Z,15.72
2019-02-16T19:44:20.669Z,17.00
2019-02-16T19:46:12.599Z,14.20
2019-02-16T19:47:59.196Z,14.00
2019-02-16T19:49:42.587Z,14.23
2019-02-16T19:51:20.414Z,16.73
2019-02-16T19:53:04.663Z,16.43
2019-02-16T19:56:43.077Z,14.58
2019-02-16T19:58:39.177Z,15.87
2019-02-16T20:00:19.495Z,15.07
2019-02-16T20:02:16.003Z,17.80
2019-02-16T20:03:58.856Z,16.33
2019-02-16T20:05:50.206Z,14.78
2019-02-16T20:07:29.125Z,15.60
2019-02-16T20:09:11.200Z,16.30
2019-02-16T20:10:56.786Z,14.03
2019-02-16T20:12:33.874Z,15.00
2019-02-16T20:14:17.136Z,15.20
2019-02-16T20:15:57.918Z,16.93
2019-02-16T20:17:37.722Z,14.17
2019-02-16T20:19:23.745Z,15.23
2019-02-16T20:21:27.449Z,14.97
2019-02-16T20:23:19.574Z,14.77
2019-02-16T20:25:02.592Z,15.57
2019-02-16T20:27:07.861Z,15.40
2019-02-16T20:28:39.193Z,15.07
2019-02-16T20:30:16.906Z,14.10
2019-02-16T20:31:56.391Z,16.30
2019-02-16T20:33:46.838Z,15.13
2019-02-16T20:35:28.100Z,13.40
2019-02-16T20:37:09.657Z,16.53
2019-02-16T20:38:54.296Z,15.07
2019-02-16T20:40:30.988Z,16.17
2019-02-16T20:42:12.776Z,16.42
2019-02-16T20:43:55.746Z,15.33
2019-02-16T20:45:32.559Z,16.82
2019-02-16T20:47:15.613Z,15.40
2019-02-16T20:51:03.330Z,15.77
2019-02-16T20:52:46.098Z,14.90
2019-02-16T20:54:32.195Z,13.73
2019-02-16T20:56:14.693Z,12.53
2019-02-16T20:57:54.537Z,13.77
2019-02-16T20:59:40.359Z,13.50
2019-02-16T21:01:26.234Z,14.53
2019-02-16T21:03:05.971Z,13.40
2019-02-16T21:04:55.072Z,15.47
2019-02-16T21:06:44.459Z,17.00
2019-02-16T21:08:39.290Z,14.30
2019-02-16T21:10:24.687Z,14.37
2019-02-16T21:12:17.791Z,13.93
2019-02-16T21:14:00.973Z,14.57
2019-02-16T21:15:43.683Z,15.30
2019-02-16T21:17:21.199Z,14.03
2019-02-16T21:18:58.987Z,14.17
2019-02-16T21:20:53.422Z,15.43
2019-02-16T21:22:42.627Z,16.93
2019-02-16T21:24:37.481Z,13.40
2019-02-16T21:26:14.352Z,12.73
2019-02-16T21:27:58.054Z,13.03
2019-02-16T21:29:36.734Z,13.17
2019-02-16T21:31:18.233Z,14.23
2019-02-16T21:32:58.955Z,13.57
2019-02-16T21:34:35.792Z,13.57
2019-02-16T21:36:12.611Z,13.73
2019-02-16T21:37:55.427Z,13.20
2019-02-16T21:39:35.168Z,14.00
2019-02-16T21:41:11.994Z,13.30
2019-02-16T21:42:48.884Z,13.67
2019-02-16T21:44:27.330Z,12.58
2019-02-16T21:46:09.890Z,13.13
2019-02-16T21:47:51.296Z,13.50
2019-02-16T21:49:28.163Z,14.30
2019-02-16T21:51:04.972Z,13.97
2019-02-16T21:52:47.593Z,13.80